Time;durP1;ratioP1;P1;durP2;ratioP2;P2;SDS_P1;SDS_P2;PMS_P1;PMS_P2;Temp;Humidity;BMP_temperature;BMP_pressure;BME280_temperature;BME280_humidity;BME280_pressure;Samples;Min_cycle;Max_cycle;Signal;HPM_P1;HPM_P2
2021/05/18 00:00:16;;;;;;;1.63;1.52;;;17.60;58.60;;;;;;5053051;28;20171;-68
2021/05/18 00:02:41;;;;;;;2.88;1.10;;;17.60;58.60;;;;;;5052741;28;20182;-68
2021/05/18 00:05:10;;;;;;;1.83;1.30;;;17.60;58.60;;;;;;5053950;28;20202;-68
2021/05/18 00:07:36;;;;;;;2.05;1.20;;;17.60;58.60;;;;;;5053146;28;20536;-67
2021/05/18 00:12:48;;;;;;;2.25;1.25;;;17.50;58.60;;;;;;5037613;28;20200;-67
2021/05/18 00:15:16;;;;;;;1.30;1.02;;;17.60;58.60;;;;;;5053361;28;20190;-67
2021/05/18 00:17:42;;;;;;;1.10;1.00;;;17.50;58.60;;;;;;5053767;28;20185;-67
2021/05/18 00:20:10;;;;;;;1.88;1.00;;;17.50;58.50;;;;;;5052852;28;20167;-68
2021/05/18 00:22:35;;;;;;;1.65;1.08;;;17.50;58.50;;;;;;5053786;28;20171;-68
2021/05/18 00:25:02;;;;;;;1.25;1.13;;;17.50;58.50;;;;;;5053379;28;20645;-67
2021/05/18 00:27:29;;;;;;;1.23;1.13;;;17.50;58.50;;;;;;5052305;28;20190;-67
2021/05/18 00:29:58;;;;;;;1.65;1.10;;;17.50;59.20;;;;;;5053683;28;20221;-66
2021/05/18 00:32:24;;;;;;;1.40;1.05;;;17.50;58.50;;;;;;5053744;28;20725;-67
2021/05/18 00:34:53;;;;;;;1.40;1.30;;;17.50;58.50;;;;;;5052558;28;20206;-66
2021/05/18 00:37:19;;;;;;;1.50;0.98;;;17.50;58.50;;;;;;5053844;28;20175;-67
2021/05/18 00:39:45;;;;;;;1.40;1.00;;;17.50;58.50;;;;;;5053008;28;20305;-67
2021/05/18 00:42:17;;;;;;;2.30;1.10;;;17.50;58.50;;;;;;5052196;28;20193;-67
2021/05/18 00:44:42;;;;;;;1.20;1.10;;;17.50;58.50;;;;;;5054161;28;20186;-67
2021/05/18 00:47:08;;;;;;;1.23;1.13;;;17.50;58.40;;;;;;5057864;28;20556;-68
2021/05/18 00:49:34;;;;;;;2.00;1.10;;;17.50;58.50;;;;;;5056750;28;20630;-68
2021/05/18 00:51:59;;;;;;;1.73;1.40;;;17.40;58.40;;;;;;5057042;28;20240;-67
2021/05/18 00:54:28;;;;;;;1.00;1.00;;;17.40;58.40;;;;;;5039759;28;20181;-68
2021/05/18 00:59:38;;;;;;;2.35;1.20;;;17.40;58.40;;;;;;5057416;28;20660;-68
2021/05/18 01:02:03;;;;;;;2.00;1.42;;;17.40;58.40;;;;;;5056342;28;20170;-67
2021/05/18 01:04:29;;;;;;;2.88;1.55;;;17.40;58.40;;;;;;5056595;28;20175;-68
2021/05/18 01:06:54;;;;;;;1.67;1.20;;;17.40;58.40;;;;;;5055968;28;20187;-67
2021/05/18 01:09:20;;;;;;;1.15;1.05;;;17.40;58.40;;;;;;5055451;28;20197;-67
2021/05/18 01:11:47;;;;;;;1.35;1.20;;;17.40;58.40;;;;;;5056290;28;20209;-66
2021/05/18 01:14:16;;;;;;;1.13;0.95;;;17.40;58.40;;;;;;5057031;28;20263;-67
2021/05/18 01:16:44;;;;;;;2.15;1.15;;;17.40;58.40;;;;;;5055430;28;20179;-67
2021/05/18 01:19:11;;;;;;;1.48;1.10;;;17.40;58.40;;;;;;5056294;28;20622;-67
2021/05/18 01:21:36;;;;;;;2.42;1.10;;;17.40;58.40;;;;;;5055991;28;20270;-67
2021/05/18 01:24:02;;;;;;;0.80;0.80;;;17.40;58.40;;;;;;5055568;28;20253;-67
2021/05/18 01:26:29;;;;;;;1.00;1.00;;;17.40;58.40;;;;;;5056656;28;20614;-66
2021/05/18 01:28:54;;;;;;;1.88;1.23;;;17.40;58.40;;;;;;5055804;28;20183;-66
2021/05/18 01:31:23;;;;;;;1.90;1.27;;;17.30;58.30;;;;;;5054978;28;20226;-67
2021/05/18 01:33:48;;;;;;;1.38;1.15;;;17.30;58.40;;;;;;5055684;28;20182;-67
2021/05/18 01:36:17;;;;;;;2.05;1.25;;;17.30;58.30;;;;;;5056789;28;20203;-67
2021/05/18 01:38:50;;;;;;;1.83;1.13;;;17.30;58.40;;;;;;5055077;28;20221;-67
2021/05/18 01:44:00;;;;;;;1.25;1.15;;;17.30;58.30;;;;;;5055685;28;20266;-67
2021/05/18 01:46:26;;;;;;;1.70;1.05;;;17.30;58.40;;;;;;5055348;28;20243;-67
2021/05/18 01:48:59;;;;;;;1.20;1.10;;;17.30;58.30;;;;;;5056171;28;20175;-67
2021/05/18 01:51:26;;;;;;;1.23;1.13;;;17.30;58.30;;;;;;5056297;28;20215;-67
2021/05/18 01:53:53;;;;;;;2.33;1.35;;;17.30;58.30;;;;;;5055865;28;20186;-67
2021/05/18 01:56:35;;;;;;;1.52;1.15;;;17.30;58.30;;;;;;5055071;28;20550;-67
2021/05/18 01:59:05;;;;;;;1.27;1.17;;;17.30;58.30;;;;;;5055469;28;20225;-67
2021/05/18 02:01:30;;;;;;;1.58;1.10;;;17.30;58.30;;;;;;5055923;28;20179;-68
2021/05/18 02:03:56;;;;;;;0.82;0.82;;;17.30;58.40;;;;;;5055951;28;20167;-67
2021/05/18 02:06:21;;;;;;;0.93;0.93;;;17.30;58.30;;;;;;5054938;28;20171;-67
2021/05/18 02:08:47;;;;;;;1.73;1.42;;;17.30;58.30;;;;;;5055541;28;20254;-67
2021/05/18 02:11:12;;;;;;;1.73;1.10;;;17.30;58.30;;;;;;5056097;28;20255;-66
2021/05/18 02:13:45;;;;;;;1.20;1.10;;;17.30;58.30;;;;;;5054608;28;20694;-67
2021/05/18 02:16:15;;;;;;;1.20;1.05;;;17.30;58.30;;;;;;5055731;28;20182;-67
2021/05/18 02:19:08;;;;;;;1.20;1.00;;;17.30;58.40;;;;;;5054589;28;20555;-67
2021/05/18 02:22:00;;;;;;;1.05;1.05;;;17.30;58.30;;;;;;5054181;28;20179;-67
2021/05/18 02:24:40;;;;;;;1.95;1.40;;;17.30;58.40;;;;;;5055712;28;20183;-67
2021/05/18 02:27:06;;;;;;;1.25;1.15;;;17.20;58.30;;;;;;5055201;28;20179;-66
2021/05/18 02:29:32;;;;;;;1.60;1.02;;;17.30;58.30;;;;;;5054874;28;20193;-67
2021/05/18 02:31:58;;;;;;;0.80;0.80;;;17.20;58.30;;;;;;5054874;28;20373;-67
2021/05/18 02:34:23;;;;;;;3.25;1.23;;;17.20;58.30;;;;;;5054309;28;20182;-67
2021/05/18 02:36:49;;;;;;;1.35;1.20;;;17.20;58.30;;;;;;5054686;28;20181;-67
2021/05/18 02:39:14;;;;;;;2.67;1.63;;;17.20;58.30;;;;;;5055332;28;20171;-67
2021/05/18 02:41:40;;;;;;;1.35;1.00;;;17.20;58.30;;;;;;5053869;28;20223;-67
2021/05/18 02:44:15;;;;;;;1.50;1.38;;;17.20;58.30;;;;;;5054758;28;20652;-68
2021/05/18 02:49:24;;;;;;;1.23;1.13;;;17.20;58.30;;;;;;5054667;28;20237;-68
2021/05/18 02:51:50;;;;;;;1.15;1.05;;;17.20;58.30;;;;;;5055007;28;20571;-67
2021/05/18 02:54:21;;;;;;;1.13;1.00;;;17.20;58.30;;;;;;5055195;28;20240;-67
2021/05/18 02:56:51;;;;;;;1.02;0.95;;;17.20;58.30;;;;;;5054480;28;20187;-67
2021/05/18 02:59:18;;;;;;;0.98;0.95;;;17.20;58.30;;;;;;5055176;28;20190;-67
2021/05/18 03:01:49;;;;;;;2.03;1.85;;;17.20;58.30;;;;;;5053564;28;20974;-67
2021/05/18 03:04:15;;;;;;;1.10;1.00;;;17.20;58.30;;;;;;5055057;28;20719;-68
2021/05/18 03:06:40;;;;;;;1.63;1.08;;;17.20;58.30;;;;;;5054668;28;20175;-67
2021/05/18 03:09:12;;;;;;;1.05;0.90;;;17.20;58.40;;;;;;5054089;28;20313;-67
2021/05/18 03:11:38;;;;;;;0.98;0.98;;;17.20;58.30;;;;;;5055007;28;20210;-67
2021/05/18 03:14:04;;;;;;;1.35;1.10;;;17.20;58.30;;;;;;5054885;28;20179;-67
2021/05/18 03:16:29;;;;;;;1.10;1.00;;;17.20;58.40;;;;;;5054192;28;20539;-67
2021/05/18 03:18:55;;;;;;;1.48;1.00;;;17.20;58.40;;;;;;5054187;28;20171;-68
2021/05/18 03:21:21;;;;;;;1.25;1.08;;;17.20;58.40;;;;;;5054015;28;20214;-68
2021/05/18 03:23:46;;;;;;;1.20;1.10;;;17.20;58.40;;;;;;5052862;28;20178;-67
2021/05/18 03:26:12;;;;;;;1.45;1.10;;;17.20;58.40;;;;;;5054676;28;20190;-66
2021/05/18 03:28:37;;;;;;;1.38;1.27;;;17.20;58.40;;;;;;5054376;28;20174;-66
2021/05/18 03:36:12;;;;;;;1.20;1.00;;;17.10;58.30;;;;;;5054206;28;20232;-67
2021/05/18 03:41:15;;;;;;;1.73;1.10;;;17.10;58.30;;;;;;5054413;28;20183;-67
2021/05/18 03:43:51;;;;;;;1.98;1.13;;;17.10;58.40;;;;;;5053460;28;20183;-67
2021/05/18 03:54:22;;;;;;;1.30;1.20;;;17.10;58.40;;;;;;5054318;28;20178;-67
2021/05/18 04:05:09;;;;;;;1.58;1.10;;;17.10;59.00;;;;;;5053663;28;20775;-68
2021/05/18 04:13:20;;;;;;;1.63;1.23;;;17.10;58.40;;;;;;5052213;28;20304;-67
2021/05/18 04:18:37;;;;;;;1.10;1.00;;;17.10;58.40;;;;;;5053763;28;20544;-68
2021/05/18 04:21:10;;;;;;;1.42;1.33;;;17.10;58.40;;;;;;5051725;28;20183;-67
2021/05/18 04:23:52;;;;;;;1.35;1.25;;;17.10;58.40;;;;;;5052893;28;20179;-68
2021/05/18 04:26:34;;;;;;;1.20;1.10;;;17.10;58.40;;;;;;5052115;28;20550;-67
2021/05/18 04:54:05;;;;;;;1.52;1.40;;;17.10;58.40;;;;;;5054692;28;20585;-68
2021/05/18 04:59:23;;;;;;;1.50;1.20;;;17.10;58.40;;;;;;5052741;28;20205;-68
2021/05/18 05:02:06;;;;;;;0.90;0.90;;;17.10;58.40;;;;;;5051677;28;20233;-67
2021/05/18 05:07:01;;;;;;;1.83;1.00;;;17.10;58.30;;;;;;5053185;28;20175;-66
2021/05/18 05:09:29;;;;;;;1.50;1.40;;;17.10;58.40;;;;;;5051414;28;20660;-66
2021/05/18 05:14:39;;;;;;;1.40;1.13;;;17.30;58.30;;;;;;5051850;28;20183;-67
2021/05/18 05:17:05;;;;;;;1.27;1.17;;;17.50;58.20;;;;;;5051118;28;20167;-67
2021/05/18 05:19:31;;;;;;;1.58;1.42;;;17.70;57.90;;;;;;5051905;28;20197;-67
2021/05/18 05:21:57;;;;;;;1.15;1.05;;;17.90;57.90;;;;;;5052019;28;20197;-67
2021/05/18 05:24:22;;;;;;;1.63;1.10;;;18.00;57.60;;;;;;5051396;28;20183;-67
2021/05/18 05:26:48;;;;;;;2.85;1.30;;;18.20;57.40;;;;;;5051754;28;20175;-67
2021/05/18 05:29:15;;;;;;;1.98;1.23;;;18.20;57.20;;;;;;5051243;28;20545;-66
2021/05/18 05:31:40;;;;;;;1.23;1.00;;;18.40;56.90;;;;;;5052157;28;20235;-67
2021/05/18 05:34:06;;;;;;;1.35;1.10;;;18.50;56.50;;;;;;5055620;28;20186;-67
2021/05/18 05:36:31;;;;;;;1.00;0.88;;;18.70;56.20;;;;;;5054611;28;20182;-67
2021/05/18 05:39:07;;;;;;;1.08;1.00;;;18.70;56.10;;;;;;5055475;28;20224;-67
2021/05/18 05:41:32;;;;;;;1.20;1.10;;;18.80;56.00;;;;;;5055191;28;20179;-68
2021/05/18 05:43:58;;;;;;;1.00;0.90;;;18.80;55.80;;;;;;5054551;28;20676;-67
2021/05/18 05:46:23;;;;;;;1.67;1.00;;;18.90;55.80;;;;;;5055174;28;20189;-67
2021/05/18 05:48:53;;;;;;;1.00;1.00;;;18.90;55.80;;;;;;5054943;28;20175;-67
2021/05/18 05:51:22;;;;;;;0.90;0.90;;;18.90;55.80;;;;;;5054503;28;20214;-67
2021/05/18 05:53:48;;;;;;;0.90;0.88;;;18.90;56.00;;;;;;5054819;28;20171;-67
2021/05/18 05:56:13;;;;;;;0.93;0.90;;;18.80;56.10;;;;;;5055121;28;20529;-67
2021/05/18 05:58:39;;;;;;;1.80;1.42;;;18.70;56.20;;;;;;5054042;28;20186;-68
2021/05/18 06:01:04;;;;;;;1.40;1.30;;;18.60;56.30;;;;;;5055088;28;20266;-67
2021/05/18 06:03:30;;;;;;;1.02;0.93;;;18.60;56.50;;;;;;5055100;28;20193;-67
2021/05/18 06:05:55;;;;;;;1.27;1.05;;;18.50;56.60;;;;;;5054271;28;20660;-67
2021/05/18 06:08:21;;;;;;;1.33;1.23;;;18.50;56.70;;;;;;5054949;28;20167;-66
2021/05/18 06:10:50;;;;;;;0.93;0.90;;;18.40;56.80;;;;;;5054509;28;20245;-66
2021/05/18 06:16:33;;;;;;;1.10;1.00;;;18.30;57.00;;;;;;5054711;28;20206;-67
2021/05/18 06:48:24;;;;;;;1.55;1.45;;;17.90;57.90;;;;;;5054173;28;20221;-65
2021/05/18 06:50:49;;;;;;;6.82;1.77;;;17.90;58.00;;;;;;5054308;28;20575;-72
2021/05/18 06:53:15;;;;;;;1.30;1.20;;;17.90;58.40;;;;;;5055517;28;20171;-71
2021/05/18 06:55:41;;;;;;;1.70;1.40;;;17.80;58.00;;;;;;5054510;28;20638;-72
2021/05/18 06:58:09;;;;;;;2.60;1.70;;;17.80;58.00;;;;;;5054933;28;20626;-72
2021/05/18 07:00:37;;;;;;;2.10;1.92;;;17.90;58.10;;;;;;5054414;28;20179;-73
2021/05/18 07:03:04;;;;;;;2.00;1.90;;;17.90;58.10;;;;;;5054645;28;20626;-72
2021/05/18 07:05:40;;;;;;;4.65;2.35;;;18.00;58.00;;;;;;5054146;28;20626;-71
2021/05/18 07:10:44;;;;;;;2.25;2.05;;;18.00;57.90;;;;;;5055396;28;20221;-70
2021/05/18 07:13:10;;;;;;;2.30;2.10;;;18.00;57.90;;;;;;5055046;28;20183;-71
2021/05/18 07:15:38;;;;;;;1.92;1.73;;;18.00;57.90;;;;;;5053394;28;20256;-72
2021/05/18 07:18:03;;;;;;;2.03;1.80;;;17.90;57.90;;;;;;5053682;28;20701;-73
2021/05/18 07:20:30;;;;;;;2.17;2.00;;;17.90;57.90;;;;;;5054435;28;20202;-72
2021/05/18 07:22:57;;;;;;;17.02;2.20;;;18.00;58.00;;;;;;5053447;28;20246;-73
2021/05/18 07:25:23;;;;;;;3.75;2.10;;;17.90;58.00;;;;;;5054459;28;20175;-72
2021/05/18 07:27:49;;;;;;;2.60;2.30;;;18.00;58.10;;;;;;5036066;28;20181;-71
2021/05/18 07:30:15;;;;;;;3.60;2.50;;;17.90;58.10;;;;;;5053512;28;20552;-72
2021/05/18 07:32:41;;;;;;;3.15;2.35;;;17.90;58.20;;;;;;5052888;28;20600;-71
2021/05/18 07:35:07;;;;;;;2.00;1.90;;;17.90;58.20;;;;;;5053725;28;20706;-73
2021/05/18 07:37:33;;;;;;;2.05;1.95;;;17.90;58.20;;;;;;5052594;28;20183;-73
2021/05/18 07:39:59;;;;;;;3.95;2.15;;;17.90;58.20;;;;;;5053539;28;20171;-73
2021/05/18 07:42:24;;;;;;;2.55;2.35;;;17.90;58.20;;;;;;5053199;28;20626;-72
2021/05/18 07:44:50;;;;;;;2.33;2.00;;;17.90;58.20;;;;;;5052083;28;20451;-74
2021/05/18 07:47:16;;;;;;;3.70;2.17;;;17.90;58.20;;;;;;5052787;28;20254;-74
2021/05/18 07:49:49;;;;;;;2.40;2.08;;;18.00;58.10;;;;;;5052536;28;20191;-72
2021/05/18 08:05:44;;;;;;;3.33;2.30;;;17.80;58.90;;;;;;5053585;28;20178;-69
2021/05/18 08:08:10;;;;;;;3.97;2.00;;;17.80;59.10;;;;;;5053890;28;20562;-70
2021/05/18 08:10:46;;;;;;;2.45;2.05;;;17.70;59.10;;;;;;5053595;28;20211;-70
2021/05/18 08:13:12;;;;;;;3.30;1.95;;;17.80;59.20;;;;;;5053620;28;20206;-69
2021/05/18 09:28:42;;;;;;;1.60;1.50;;;18.30;58.60;;;;;;5051744;28;20201;-76
2021/05/18 10:18:35;;;;;;;3.75;2.38;;;18.00;59.00;;;;;;5055271;28;20177;-67
2021/05/18 10:23:15;;;;;;;2.10;2.00;;;18.00;58.70;;;;;;5055823;28;20516;-67
2021/05/18 10:36:13;;;;;;;2.95;1.92;;;18.40;58.20;;;;;;5054633;28;20175;-72
2021/05/18 10:38:46;;;;;;;3.05;1.65;;;18.40;58.20;;;;;;5053732;28;20198;-72
2021/05/18 10:41:22;;;;;;;2.35;1.98;;;18.40;58.20;;;;;;5054790;28;20210;-72
2021/05/18 10:43:59;;;;;;;1.95;1.80;;;18.40;58.20;;;;;;5054477;28;20592;-74
2021/05/18 10:46:29;;;;;;;1.83;1.73;;;18.40;58.20;;;;;;5053795;28;20639;-74
2021/05/18 10:49:05;;;;;;;2.47;1.60;;;18.50;58.10;;;;;;5054136;28;20185;-74
2021/05/18 10:51:35;;;;;;;5.35;2.08;;;18.50;57.90;;;;;;5054546;28;20222;-72
2021/05/18 10:54:11;;;;;;;1.52;1.40;;;18.50;57.80;;;;;;5054493;28;20190;-72
2021/05/18 10:59:25;;;;;;;2.25;1.60;;;18.50;58.00;;;;;;5054851;28;20567;-72
2021/05/18 11:02:30;;;;;;;2.20;1.67;;;18.50;58.10;;;;;;5053124;28;20183;-73
2021/05/18 11:05:03;;;;;;;2.03;1.83;;;18.50;58.10;;;;;;5053954;28;20253;-73
2021/05/18 11:07:39;;;;;;;1.63;1.52;;;18.40;58.00;;;;;;5054368;28;20254;-73
2021/05/18 11:10:15;;;;;;;1.60;1.50;;;18.50;58.00;;;;;;5054533;28;20218;-71
2021/05/18 11:12:44;;;;;;;2.13;1.92;;;18.60;57.80;;;;;;5054068;28;20179;-71
2021/05/18 11:15:10;;;;;;;3.00;1.50;;;18.60;57.80;;;;;;5053824;28;20186;-72
2021/05/18 11:17:38;;;;;;;2.15;1.58;;;18.60;57.80;;;;;;5053379;28;20202;-74
2021/05/18 11:20:23;;;;;;;1.75;1.50;;;18.60;57.80;;;;;;5053792;28;20183;-66
2021/05/18 11:26:09;;;;;;;4.00;1.50;;;18.70;57.60;;;;;;5053270;28;20170;-66
2021/05/18 11:28:44;;;;;;;3.25;1.80;;;18.80;57.50;;;;;;5051938;28;20178;-65
2021/05/18 11:31:11;;;;;;;2.13;1.90;;;18.80;57.40;;;;;;5052894;28;20562;-64
2021/05/18 11:33:40;;;;;;;2.20;1.85;;;18.90;57.40;;;;;;5053212;28;20520;-65
2021/05/18 11:36:15;;;;;;;1.50;1.33;;;18.90;57.40;;;;;;5052494;28;20638;-66
2021/05/18 11:38:48;;;;;;;1.45;1.35;;;18.90;57.50;;;;;;5053304;28;20198;-63
2021/05/18 11:41:19;;;;;;;5.43;1.67;;;18.80;57.60;;;;;;5053458;28;20179;-65
2021/05/18 11:43:46;;;;;;;1.55;1.35;;;18.80;57.70;;;;;;5052349;28;20176;-66
2021/05/18 11:46:12;;;;;;;1.67;1.58;;;18.80;57.60;;;;;;5036202;28;20186;-67
2021/05/18 11:48:42;;;;;;;4.95;2.17;;;18.80;57.70;;;;;;5052714;28;20224;-66
2021/05/18 11:51:13;;;;;;;1.60;1.50;;;18.70;57.80;;;;;;5052524;28;20218;-65
2021/05/18 11:53:46;;;;;;;1.60;1.50;;;18.70;57.90;;;;;;5052952;28;20258;-66
2021/05/18 11:56:24;;;;;;;1.55;1.45;;;18.60;58.00;;;;;;5052476;28;20536;-63
2021/05/18 11:58:57;;;;;;;1.63;1.50;;;18.60;58.20;;;;;;5052704;28;20514;-63
2021/05/18 12:01:23;;;;;;;1.40;1.30;;;18.60;58.20;;;;;;5053282;28;20174;-63
2021/05/18 12:03:59;;;;;;;3.30;1.65;;;18.70;57.90;;;;;;5051799;28;20548;-64
2021/05/18 12:06:28;;;;;;;2.50;1.83;;;18.70;57.40;;;;;;5053009;28;20721;-63
2021/05/18 12:08:57;;;;;;;2.17;1.98;;;18.80;56.60;;;;;;5052847;28;20179;-62
2021/05/18 12:11:23;;;;;;;2.17;1.98;;;18.80;56.20;;;;;;5052452;28;20210;-63
2021/05/18 12:13:49;;;;;;;2.25;1.75;;;18.70;56.30;;;;;;5052622;28;20179;-63
2021/05/18 12:16:17;;;;;;;1.67;1.58;;;18.60;56.50;;;;;;5053305;28;20551;-64
2021/05/18 12:18:42;;;;;;;2.70;2.05;;;18.50;56.80;;;;;;5051775;28;20633;-65
2021/05/18 12:21:16;;;;;;;1.70;1.60;;;18.40;56.90;;;;;;5053086;28;20175;-64
2021/05/18 12:23:42;;;;;;;2.13;1.75;;;18.40;57.20;;;;;;5052438;28;20248;-63
2021/05/18 12:26:18;;;;;;;1.70;1.60;;;18.30;57.30;;;;;;5052007;28;20175;-63
2021/05/18 12:28:57;;;;;;;1.45;1.35;;;18.30;57.30;;;;;;5052377;28;20268;-64
2021/05/18 12:31:36;;;;;;;3.17;1.80;;;18.30;57.40;;;;;;5052099;28;20223;-64
2021/05/18 12:34:03;;;;;;;2.50;1.50;;;18.40;57.30;;;;;;5052594;28;20171;-65
2021/05/18 12:36:29;;;;;;;1.65;1.40;;;18.40;57.20;;;;;;5053212;28;20190;-63
2021/05/18 12:39:10;;;;;;;1.65;1.20;;;18.60;57.00;;;;;;5052140;28;20175;-63
2021/05/18 12:41:59;;;;;;;2.42;1.38;;;18.70;56.70;;;;;;5055327;28;20229;-63
2021/05/18 12:44:26;;;;;;;1.70;1.42;;;18.80;56.50;;;;;;5057295;28;20190;-64
2021/05/18 12:46:54;;;;;;;2.45;1.85;;;18.90;56.40;;;;;;5055960;28;20175;-64
2021/05/18 12:49:28;;;;;;;1.30;1.30;;;18.90;56.40;;;;;;5057246;28;20664;-65
2021/05/18 12:52:12;;;;;;;1.73;1.30;;;18.90;56.50;;;;;;5056607;28;20289;-64
2021/05/18 12:54:42;;;;;;;3.30;1.33;;;18.90;56.50;;;;;;5056294;28;20171;-63
2021/05/18 12:57:08;;;;;;;1.92;1.42;;;19.00;56.40;;;;;;5056962;28;20186;-63
2021/05/18 12:59:34;;;;;;;1.45;1.38;;;19.00;56.40;;;;;;5055672;28;20183;-63
2021/05/18 13:01:59;;;;;;;2.15;1.35;;;19.10;56.30;;;;;;5039142;28;20175;-64
2021/05/18 13:04:25;;;;;;;1.58;1.48;;;19.10;56.30;;;;;;5056577;28;20507;-64
2021/05/18 13:06:51;;;;;;;1.25;1.15;;;19.10;56.20;;;;;;5055777;28;20179;-64
2021/05/18 13:09:17;;;;;;;1.20;1.10;;;19.20;56.30;;;;;;5056120;28;20194;-63
2021/05/18 13:14:27;;;;;;;1.10;1.10;;;19.30;56.20;;;;;;5055603;28;20202;-64
2021/05/18 13:16:52;;;;;;;1.30;1.10;;;19.30;56.10;;;;;;5055954;28;20580;-64
2021/05/18 13:19:18;;;;;;;1.00;1.00;;;19.40;56.10;;;;;;5037893;28;20190;-64
2021/05/18 13:21:56;;;;;;;1.30;1.20;;;19.40;56.00;;;;;;5055034;28;20238;-64
2021/05/18 13:26:25;;;;;;;1.42;1.10;;;19.30;56.10;;;;;;5056044;28;20163;-63
2021/05/18 13:27:19;;;;;;;0.95;0.90;;;19.30;56.30;;;;;;5055692;28;20175;-63
2021/05/18 13:29:44;;;;;;;1.45;1.00;;;19.20;56.40;;;;;;5054578;28;20193;-63
2021/05/18 13:32:10;;;;;;;0.90;0.90;;;19.20;56.40;;;;;;5038028;28;20731;-63
2021/05/18 13:34:35;;;;;;;1.00;1.00;;;19.20;56.50;;;;;;5054552;28;20167;-63
2021/05/18 13:37:01;;;;;;;1.27;1.27;;;19.30;56.30;;;;;;5055249;28;20663;-63
2021/05/18 13:39:26;;;;;;;1.63;1.30;;;19.40;56.20;;;;;;5055331;28;20179;-63
2021/05/18 13:41:52;;;;;;;0.90;0.90;;;19.50;56.10;;;;;;5054470;28;20167;-63
2021/05/18 13:44:18;;;;;;;0.90;0.90;;;19.50;56.00;;;;;;5055405;28;20199;-64
2021/05/18 13:46:47;;;;;;;1.20;1.10;;;19.60;55.90;;;;;;5055100;28;20642;-65
2021/05/18 13:49:13;;;;;;;1.45;1.30;;;19.60;55.80;;;;;;5054700;28;20233;-64
2021/05/18 13:51:39;;;;;;;1.35;1.25;;;19.60;55.80;;;;;;5054487;28;20215;-64
2021/05/18 13:54:05;;;;;;;1.20;1.10;;;19.70;55.70;;;;;;5036558;28;20534;-64
2021/05/18 13:56:31;;;;;;;1.20;1.10;;;19.80;55.60;;;;;;5054314;28;20190;-64
2021/05/18 13:58:57;;;;;;;1.10;1.05;;;19.80;55.60;;;;;;5054825;28;20518;-64
2021/05/18 14:01:25;;;;;;;1.20;1.10;;;19.70;55.70;;;;;;5055068;28;20199;-64
2021/05/18 14:03:51;;;;;;;1.00;1.00;;;19.60;55.80;;;;;;5053689;28;20626;-64
2021/05/18 14:06:17;;;;;;;1.10;1.10;;;19.60;56.00;;;;;;5054951;28;20187;-65
2021/05/18 14:08:43;;;;;;;1.05;1.05;;;19.60;56.50;;;;;;5054824;28;20301;-64
2021/05/18 14:11:11;;;;;;;1.75;1.10;;;19.50;56.10;;;;;;5054833;28;20620;-63
2021/05/18 14:13:38;;;;;;;1.13;1.02;;;19.40;56.20;;;;;;5054505;28;20176;-63
2021/05/18 14:16:04;;;;;;;1.35;1.30;;;19.40;56.20;;;;;;5054752;28;20329;-63
2021/05/18 14:18:30;;;;;;;1.00;1.00;;;19.30;56.40;;;;;;5054088;28;20175;-64
2021/05/18 14:20:55;;;;;;;1.42;1.33;;;19.30;56.40;;;;;;5054563;28;20194;-64
2021/05/18 14:23:23;;;;;;;1.05;1.05;;;19.40;56.30;;;;;;5055204;28;20170;-64
2021/05/18 14:25:50;;;;;;;1.15;0.80;;;19.50;56.10;;;;;;5053332;28;20525;-63
2021/05/18 14:28:16;;;;;;;1.15;1.05;;;19.60;56.10;;;;;;5054473;28;20175;-63
2021/05/18 14:30:41;;;;;;;2.10;1.20;;;19.60;56.00;;;;;;5053379;28;20225;-63
2021/05/18 14:33:07;;;;;;;1.00;0.90;;;19.50;56.10;;;;;;5054396;28;20589;-63
2021/05/18 14:35:32;;;;;;;1.00;1.00;;;19.40;56.20;;;;;;5054156;28;20179;-64
2021/05/18 14:38:09;;;;;;;1.13;1.02;;;19.40;56.10;;;;;;5053752;28;20633;-63
2021/05/18 14:54:27;;;;;;;1.08;1.08;;;19.80;55.40;;;;;;5053870;28;20166;-64
2021/05/18 14:56:54;;;;;;;1.08;1.00;;;19.80;55.50;;;;;;5053523;28;20634;-64
2021/05/18 14:59:21;;;;;;;1.67;1.00;;;19.80;55.40;;;;;;5053488;28;20175;-64
2021/05/18 15:01:46;;;;;;;1.40;1.00;;;19.60;55.50;;;;;;5053675;28;20178;-63
2021/05/18 15:04:12;;;;;;;1.65;1.00;;;19.60;55.70;;;;;;5053748;28;20163;-64
2021/05/18 15:06:40;;;;;;;0.90;0.90;;;19.60;55.80;;;;;;5052922;28;20171;-64
2021/05/18 15:09:06;;;;;;;1.23;1.00;;;19.50;55.80;;;;;;5053914;28;20232;-63
2021/05/18 15:11:32;;;;;;;0.90;0.90;;;19.40;55.90;;;;;;5053328;28;20300;-64
2021/05/18 15:13:58;;;;;;;0.95;0.95;;;19.50;55.70;;;;;;5053334;28;20596;-63
2021/05/18 15:16:24;;;;;;;1.30;1.20;;;19.60;55.60;;;;;;5053495;28;20179;-64
2021/05/18 15:18:52;;;;;;;2.03;0.80;;;19.50;55.70;;;;;;5053223;28;20221;-64
2021/05/18 15:21:18;;;;;;;0.80;0.80;;;19.40;55.80;;;;;;5052898;28;20185;-64
2021/05/18 15:23:45;;;;;;;1.13;0.73;;;19.30;55.80;;;;;;5053321;28;20265;-64
2021/05/18 15:26:12;;;;;;;1.00;0.90;;;19.30;55.90;;;;;;5053874;28;20183;-63
2021/05/18 15:28:41;;;;;;;1.30;1.20;;;19.20;56.00;;;;;;5052613;28;20174;-63
2021/05/18 15:31:07;;;;;;;0.77;0.77;;;19.20;56.00;;;;;;5052929;28;20235;-63
2021/05/18 15:33:33;;;;;;;1.20;1.15;;;19.10;56.00;;;;;;5053075;28;20250;-64
2021/05/18 15:36:02;;;;;;;1.02;1.02;;;19.10;56.00;;;;;;5052509;28;20619;-64
2021/05/18 15:38:30;;;;;;;0.70;0.70;;;19.10;56.00;;;;;;5053624;28;20225;-64
2021/05/18 15:40:59;;;;;;;0.60;0.60;;;19.10;55.90;;;;;;5053189;28;20200;-65
2021/05/18 15:43:26;;;;;;;0.80;0.80;;;19.20;55.90;;;;;;5052983;28;20298;-65
2021/05/18 15:45:52;;;;;;;1.20;1.10;;;19.20;55.80;;;;;;5052588;28;20175;-65
2021/05/18 15:48:18;;;;;;;1.08;0.98;;;19.20;55.80;;;;;;5052869;28;20170;-65
2021/05/18 15:50:44;;;;;;;1.38;0.80;;;19.10;55.80;;;;;;5052928;28;20214;-65
2021/05/18 15:53:15;;;;;;;0.88;0.88;;;19.10;55.90;;;;;;5053319;28;20171;-65
2021/05/18 15:55:41;;;;;;;0.88;0.70;;;19.10;55.80;;;;;;5052043;28;20229;-64
2021/05/18 15:58:06;;;;;;;1.08;0.80;;;19.30;55.70;;;;;;5053022;28;20171;-64
2021/05/18 16:00:32;;;;;;;2.00;1.00;;;19.40;55.50;;;;;;5052666;28;20629;-65
2021/05/18 16:02:58;;;;;;;1.13;0.90;;;19.40;55.40;;;;;;5052324;28;20171;-64
2021/05/18 16:05:24;;;;;;;1.17;0.82;;;19.30;55.60;;;;;;5053276;28;20178;-65
2021/05/18 16:08:04;;;;;;;0.70;0.70;;;19.20;55.70;;;;;;5052821;28;20173;-64
2021/05/18 16:10:30;;;;;;;1.00;0.80;;;19.20;55.80;;;;;;5052216;28;20203;-64
2021/05/18 16:12:55;;;;;;;0.85;0.80;;;19.10;55.80;;;;;;5052564;28;20175;-63
2021/05/18 16:15:21;;;;;;;1.88;0.90;;;19.30;55.50;;;;;;5051745;28;20189;-63
2021/05/18 16:17:46;;;;;;;0.80;0.80;;;19.20;55.60;;;;;;5051400;28;20167;-64
2021/05/18 16:20:12;;;;;;;0.98;0.80;;;19.10;55.60;;;;;;5052602;28;20258;-63
2021/05/18 16:22:38;;;;;;;1.92;0.88;;;19.30;55.70;;;;;;5052426;28;20202;-65
2021/05/18 16:25:04;;;;;;;1.20;0.93;;;19.50;55.20;;;;;;5051887;28;20207;-67
2021/05/18 16:27:29;;;;;;;4.45;0.93;;;19.70;54.90;;;;;;5052519;28;20689;-67
2021/05/18 16:29:55;;;;;;;1.75;0.82;;;19.90;54.60;;;;;;5052011;28;20221;-76
2021/05/18 16:32:20;;;;;;;2.55;0.88;;;20.00;54.50;;;;;;5051469;28;20586;-75
2021/05/18 16:34:46;;;;;;;2.22;0.93;;;20.10;54.40;;;;;;5052303;28;20214;-76
2021/05/18 16:37:11;;;;;;;1.60;1.08;;;20.20;54.20;;;;;;5052612;28;20177;-77
2021/05/18 16:39:37;;;;;;;1.17;0.93;;;20.30;54.10;;;;;;5051550;28;20167;-74
2021/05/18 16:42:03;;;;;;;0.93;0.85;;;20.40;53.90;;;;;;5052320;28;20171;-69
2021/05/18 16:44:29;;;;;;;1.38;0.88;;;20.30;54.00;;;;;;5051933;28;20653;-71
2021/05/18 16:46:55;;;;;;;1.58;0.90;;;20.20;54.20;;;;;;5052004;28;20183;-70
2021/05/18 16:49:20;;;;;;;1.00;0.90;;;20.00;54.50;;;;;;5052595;28;20174;-71
2021/05/18 16:51:47;;;;;;;0.80;0.65;;;19.90;54.80;;;;;;5051100;28;20210;-70
2021/05/18 16:54:13;;;;;;;2.42;0.93;;;20.10;54.90;;;;;;5052236;28;20622;-66
2021/05/18 16:56:39;;;;;;;0.90;0.80;;;20.20;54.50;;;;;;5051349;28;20195;-67
2021/05/18 16:59:05;;;;;;;1.65;0.90;;;20.30;54.20;;;;;;5051482;28;20170;-66
2021/05/18 17:01:31;;;;;;;0.80;0.80;;;20.50;54.10;;;;;;5051579;28;20664;-67
2021/05/18 17:03:56;;;;;;;0.95;0.90;;;20.50;54.00;;;;;;5052126;28;20171;-66
2021/05/18 17:06:22;;;;;;;1.65;0.80;;;20.60;54.30;;;;;;5051337;28;20179;-66
2021/05/18 17:08:47;;;;;;;0.82;0.80;;;20.70;54.20;;;;;;5051927;28;20175;-66
2021/05/18 17:11:13;;;;;;;3.42;0.88;;;20.80;54.20;;;;;;5051859;28;20207;-65
2021/05/18 17:13:39;;;;;;;0.90;0.85;;;20.50;54.30;;;;;;5050911;28;20618;-66
2021/05/18 17:16:05;;;;;;;2.25;0.98;;;20.50;54.70;;;;;;5051992;28;20190;-65
2021/05/18 17:18:31;;;;;;;1.58;0.70;;;20.60;54.50;;;;;;5051742;28;20179;-66
2021/05/18 17:20:56;;;;;;;1.38;0.80;;;20.70;54.30;;;;;;5051310;28;20193;-66
2021/05/18 17:23:22;;;;;;;0.63;0.63;;;20.80;54.40;;;;;;5052201;28;20171;-67
2021/05/18 17:25:48;;;;;;;1.80;0.73;;;20.80;54.40;;;;;;5051454;28;20172;-66
2021/05/18 17:28:14;;;;;;;2.45;0.80;;;20.90;54.40;;;;;;5054407;28;20221;-66
2021/05/18 17:30:42;;;;;;;0.85;0.85;;;20.80;54.20;;;;;;5055244;28;20215;-67
2021/05/18 17:33:15;;;;;;;1.25;1.13;;;20.80;54.60;;;;;;5055379;28;20246;-67